sensor_id;sensor_type;location;lat;lon;timestamp;P1;durP1;ratioP1;P2;durP2;ratioP2
49340;SDS011;35209;51.050;13.678;2022-08-05T00:04:55;3.58;;;1.63;;
49340;SDS011;35209;51.050;13.678;2022-08-05T00:09:57;4.10;;;1.90;;
49340;SDS011;35209;51.050;13.678;2022-08-05T00:14:59;2.20;;;1.80;;
49340;SDS011;35209;51.050;13.678;2022-08-05T00:20:21;3.13;;;1.90;;
49340;SDS011;35209;51.050;13.678;2022-08-05T00:25:29;2.05;;;1.85;;
49340;SDS011;35209;51.050;13.678;2022-08-05T00:30:46;2.13;;;1.50;;
49340;SDS011;35209;51.050;13.678;2022-08-05T00:35:52;1.90;;;1.80;;
49340;SDS011;35209;51.050;13.678;2022-08-05T00:41:14;3.00;;;2.17;;
49340;SDS011;35209;51.050;13.678;2022-08-05T00:46:47;2.42;;;2.22;;
49340;SDS011;35209;51.050;13.678;2022-08-05T00:51:59;1.67;;;1.58;;
49340;SDS011;35209;51.050;13.678;2022-08-05T00:57:00;2.25;;;2.00;;
49340;SDS011;35209;51.050;13.678;2022-08-05T01:02:02;3.65;;;1.90;;
49340;SDS011;35209;51.050;13.678;2022-08-05T01:07:04;2.72;;;1.70;;
49340;SDS011;35209;51.050;13.678;2022-08-05T01:12:14;2.38;;;1.92;;
49340;SDS011;35209;51.050;13.678;2022-08-05T01:17:24;3.33;;;2.42;;
49340;SDS011;35209;51.050;13.678;2022-08-05T01:27:51;2.30;;;1.92;;
49340;SDS011;35209;51.050;13.678;2022-08-05T01:33:13;2.20;;;2.00;;
49340;SDS011;35209;51.050;13.678;2022-08-05T01:38:20;3.55;;;2.40;;
49340;SDS011;35209;51.050;13.678;2022-08-05T01:43:29;2.88;;;2.30;;
49340;SDS011;35209;51.050;13.678;2022-08-05T01:48:33;3.80;;;2.47;;
49340;SDS011;35209;51.050;13.678;2022-08-05T01:53:37;6.82;;;2.60;;
49340;SDS011;35209;51.050;13.678;2022-08-05T01:58:59;3.20;;;2.22;;
49340;SDS011;35209;51.050;13.678;2022-08-05T02:04:05;2.50;;;2.30;;
49340;SDS011;35209;51.050;13.678;2022-08-05T02:09:10;3.67;;;2.35;;
49340;SDS011;35209;51.050;13.678;2022-08-05T02:14:19;3.13;;;2.00;;
49340;SDS011;35209;51.050;13.678;2022-08-05T02:19:32;2.97;;;2.58;;
49340;SDS011;35209;51.050;13.678;2022-08-05T02:24:49;4.25;;;2.70;;
49340;SDS011;35209;51.050;13.678;2022-08-05T02:29:53;4.22;;;2.67;;
49340;SDS011;35209;51.050;13.678;2022-08-05T02:35:01;2.80;;;2.30;;
49340;SDS011;35209;51.050;13.678;2022-08-05T02:40:15;2.78;;;2.38;;
49340;SDS011;35209;51.050;13.678;2022-08-05T02:45:18;2.22;;;2.03;;
49340;SDS011;35209;51.050;13.678;2022-08-05T02:55:27;2.97;;;2.67;;
49340;SDS011;35209;51.050;13.678;2022-08-05T03:00:54;2.42;;;2.17;;
49340;SDS011;35209;51.050;13.678;2022-08-05T03:05:59;2.35;;;2.15;;
49340;SDS011;35209;51.050;13.678;2022-08-05T03:11:22;4.03;;;2.72;;
49340;SDS011;35209;51.050;13.678;2022-08-05T03:16:45;3.63;;;2.30;;
49340;SDS011;35209;51.050;13.678;2022-08-05T03:21:48;2.83;;;2.40;;
49340;SDS011;35209;51.050;13.678;2022-08-05T03:26:50;3.08;;;1.85;;
49340;SDS011;35209;51.050;13.678;2022-08-05T03:31:52;3.00;;;2.70;;
49340;SDS011;35209;51.050;13.678;2022-08-05T03:37:00;3.78;;;2.25;;
49340;SDS011;35209;51.050;13.678;2022-08-05T03:42:04;4.28;;;3.00;;
49340;SDS011;35209;51.050;13.678;2022-08-05T03:47:06;2.70;;;2.30;;
49340;SDS011;35209;51.050;13.678;2022-08-05T03:52:09;3.40;;;2.25;;
49340;SDS011;35209;51.050;13.678;2022-08-05T03:57:32;2.87;;;2.57;;
49340;SDS011;35209;51.050;13.678;2022-08-05T04:02:45;2.83;;;2.63;;
49340;SDS011;35209;51.050;13.678;2022-08-05T04:08:00;3.40;;;2.70;;
49340;SDS011;35209;51.050;13.678;2022-08-05T04:13:06;3.30;;;2.50;;
49340;SDS011;35209;51.050;13.678;2022-08-05T04:18:08;3.30;;;2.63;;
49340;SDS011;35209;51.050;13.678;2022-08-05T04:23:22;3.00;;;2.55;;
49340;SDS011;35209;51.050;13.678;2022-08-05T04:28:45;3.42;;;2.72;;
49340;SDS011;35209;51.050;13.678;2022-08-05T04:33:52;2.88;;;2.50;;
49340;SDS011;35209;51.050;13.678;2022-08-05T04:39:14;3.05;;;2.45;;
49340;SDS011;35209;51.050;13.678;2022-08-05T04:44:15;2.50;;;2.30;;
49340;SDS011;35209;51.050;13.678;2022-08-05T04:49:29;3.55;;;2.60;;
49340;SDS011;35209;51.050;13.678;2022-08-05T04:54:51;2.50;;;2.30;;
49340;SDS011;35209;51.050;13.678;2022-08-05T04:59:53;3.78;;;2.97;;
49340;SDS011;35209;51.050;13.678;2022-08-05T05:04:55;5.72;;;2.63;;
49340;SDS011;35209;51.050;13.678;2022-08-05T05:10:03;2.58;;;2.38;;
49340;SDS011;35209;51.050;13.678;2022-08-05T05:15:07;2.72;;;2.05;;
49340;SDS011;35209;51.050;13.678;2022-08-05T05:20:12;3.83;;;2.28;;
49340;SDS011;35209;51.050;13.678;2022-08-05T05:25:14;5.18;;;2.28;;
49340;SDS011;35209;51.050;13.678;2022-08-05T05:30:17;4.50;;;2.22;;
49340;SDS011;35209;51.050;13.678;2022-08-05T05:35:32;2.55;;;2.20;;
49340;SDS011;35209;51.050;13.678;2022-08-05T05:40:40;4.60;;;2.28;;
49340;SDS011;35209;51.050;13.678;2022-08-05T05:45:51;3.47;;;2.10;;
49340;SDS011;35209;51.050;13.678;2022-08-05T05:50:53;2.53;;;2.05;;
49340;SDS011;35209;51.050;13.678;2022-08-05T05:55:55;3.58;;;2.13;;
49340;SDS011;35209;51.050;13.678;2022-08-05T06:01:03;2.50;;;2.20;;
49340;SDS011;35209;51.050;13.678;2022-08-05T06:06:18;4.30;;;2.10;;
49340;SDS011;35209;51.050;13.678;2022-08-05T06:11:22;8.82;;;3.05;;
49340;SDS011;35209;51.050;13.678;2022-08-05T06:16:24;4.80;;;2.67;;
49340;SDS011;35209;51.050;13.678;2022-08-05T06:21:32;4.55;;;2.13;;
49340;SDS011;35209;51.050;13.678;2022-08-05T06:26:41;3.90;;;1.90;;
49340;SDS011;35209;51.050;13.678;2022-08-05T06:31:52;4.67;;;1.53;;
49340;SDS011;35209;51.050;13.678;2022-08-05T06:36:54;8.32;;;1.80;;
49340;SDS011;35209;51.050;13.678;2022-08-05T06:41:59;4.63;;;1.43;;
49340;SDS011;35209;51.050;13.678;2022-08-05T06:47:04;1.40;;;1.30;;
49340;SDS011;35209;51.050;13.678;2022-08-05T06:52:10;4.82;;;1.40;;
49340;SDS011;35209;51.050;13.678;2022-08-05T06:57:32;4.95;;;1.80;;
49340;SDS011;35209;51.050;13.678;2022-08-05T07:02:54;3.25;;;1.60;;
49340;SDS011;35209;51.050;13.678;2022-08-05T07:07:56;5.88;;;1.90;;
49340;SDS011;35209;51.050;13.678;2022-08-05T07:12:59;5.30;;;1.83;;
49340;SDS011;35209;51.050;13.678;2022-08-05T07:18:39;7.95;;;2.17;;
49340;SDS011;35209;51.050;13.678;2022-08-05T07:23:48;2.72;;;2.30;;
49340;SDS011;35209;51.050;13.678;2022-08-05T07:28:52;5.43;;;1.92;;
49340;SDS011;35209;51.050;13.678;2022-08-05T07:33:54;7.47;;;2.38;;
49340;SDS011;35209;51.050;13.678;2022-08-05T07:39:01;5.32;;;2.92;;
49340;SDS011;35209;51.050;13.678;2022-08-05T07:44:06;5.03;;;2.58;;
49340;SDS011;35209;51.050;13.678;2022-08-05T07:49:19;4.40;;;2.45;;
49340;SDS011;35209;51.050;13.678;2022-08-05T07:54:22;3.15;;;2.30;;
49340;SDS011;35209;51.050;13.678;2022-08-05T07:59:34;4.03;;;2.35;;
49340;SDS011;35209;51.050;13.678;2022-08-05T08:04:41;5.15;;;2.30;;
49340;SDS011;35209;51.050;13.678;2022-08-05T08:09:45;3.80;;;2.67;;
49340;SDS011;35209;51.050;13.678;2022-08-05T08:14:48;5.82;;;2.63;;
49340;SDS011;35209;51.050;13.678;2022-08-05T08:19:50;7.75;;;2.85;;
49340;SDS011;35209;51.050;13.678;2022-08-05T08:25:12;5.18;;;2.95;;
49340;SDS011;35209;51.050;13.678;2022-08-05T08:30:17;2.65;;;2.22;;
49340;SDS011;35209;51.050;13.678;2022-08-05T08:35:35;5.18;;;2.63;;
49340;SDS011;35209;51.050;13.678;2022-08-05T08:40:42;5.90;;;2.80;;
49340;SDS011;35209;51.050;13.678;2022-08-05T08:45:51;3.95;;;2.20;;
49340;SDS011;35209;51.050;13.678;2022-08-05T08:50:54;6.10;;;2.17;;
49340;SDS011;35209;51.050;13.678;2022-08-05T08:56:16;4.15;;;2.33;;
49340;SDS011;35209;51.050;13.678;2022-08-05T09:01:18;6.97;;;2.47;;
49340;SDS011;35209;51.050;13.678;2022-08-05T09:06:20;3.20;;;2.90;;
49340;SDS011;35209;51.050;13.678;2022-08-05T09:11:29;2.67;;;2.15;;
49340;SDS011;35209;51.050;13.678;2022-08-05T09:21:55;3.65;;;2.72;;
49340;SDS011;35209;51.050;13.678;2022-08-05T09:27:25;5.75;;;2.47;;
49340;SDS011;35209;51.050;13.678;2022-08-05T09:32:52;6.20;;;2.50;;
49340;SDS011;35209;51.050;13.678;2022-08-05T09:38:04;5.15;;;2.20;;
49340;SDS011;35209;51.050;13.678;2022-08-05T09:43:30;4.22;;;2.00;;
49340;SDS011;35209;51.050;13.678;2022-08-05T09:48:41;4.68;;;2.58;;
49340;SDS011;35209;51.050;13.678;2022-08-05T09:54:04;5.20;;;2.20;;
49340;SDS011;35209;51.050;13.678;2022-08-05T09:59:11;3.67;;;2.42;;
49340;SDS011;35209;51.050;13.678;2022-08-05T10:04:17;4.25;;;2.03;;
49340;SDS011;35209;51.050;13.678;2022-08-05T10:09:29;2.60;;;2.15;;
49340;SDS011;35209;51.050;13.678;2022-08-05T10:14:45;6.72;;;2.75;;
49340;SDS011;35209;51.050;13.678;2022-08-05T10:19:47;7.50;;;1.90;;
49340;SDS011;35209;51.050;13.678;2022-08-05T10:25:09;4.18;;;2.17;;
49340;SDS011;35209;51.050;13.678;2022-08-05T10:30:14;3.10;;;2.15;;
49340;SDS011;35209;51.050;13.678;2022-08-05T10:35:36;6.03;;;2.30;;
49340;SDS011;35209;51.050;13.678;2022-08-05T10:45:54;4.03;;;2.42;;
49340;SDS011;35209;51.050;13.678;2022-08-05T10:51:08;5.30;;;2.50;;
49340;SDS011;35209;51.050;13.678;2022-08-05T10:56:27;3.83;;;2.70;;
49340;SDS011;35209;51.050;13.678;2022-08-05T11:01:38;5.65;;;2.35;;
49340;SDS011;35209;51.050;13.678;2022-08-05T11:07:04;5.03;;;2.40;;
49340;SDS011;35209;51.050;13.678;2022-08-05T11:17:30;6.65;;;2.80;;
49340;SDS011;35209;51.050;13.678;2022-08-05T11:22:54;3.35;;;2.42;;
49340;SDS011;35209;51.050;13.678;2022-08-05T11:33:27;4.13;;;2.50;;
49340;SDS011;35209;51.050;13.678;2022-08-05T11:49:09;3.13;;;1.88;;
49340;SDS011;35209;51.050;13.678;2022-08-05T11:54:20;4.75;;;2.08;;
49340;SDS011;35209;51.050;13.678;2022-08-05T11:59:35;7.85;;;2.17;;
49340;SDS011;35209;51.050;13.678;2022-08-05T12:04:50;3.97;;;2.10;;
49340;SDS011;35209;51.050;13.678;2022-08-05T12:10:00;4.10;;;1.80;;
49340;SDS011;35209;51.050;13.678;2022-08-05T12:15:18;3.95;;;1.67;;
49340;SDS011;35209;51.050;13.678;2022-08-05T12:20:38;3.30;;;1.73;;
49340;SDS011;35209;51.050;13.678;2022-08-05T12:25:51;3.55;;;1.50;;
49340;SDS011;35209;51.050;13.678;2022-08-05T12:30:57;2.55;;;1.95;;
49340;SDS011;35209;51.050;13.678;2022-08-05T12:36:02;4.07;;;1.65;;
49340;SDS011;35209;51.050;13.678;2022-08-05T12:41:10;3.08;;;1.42;;
49340;SDS011;35209;51.050;13.678;2022-08-05T12:46:20;4.00;;;1.33;;
49340;SDS011;35209;51.050;13.678;2022-08-05T12:51:29;5.68;;;1.48;;
49340;SDS011;35209;51.050;13.678;2022-08-05T12:56:56;5.25;;;1.50;;
49340;SDS011;35209;51.050;13.678;2022-08-05T13:02:03;2.65;;;1.35;;
49340;SDS011;35209;51.050;13.678;2022-08-05T13:07:17;3.05;;;1.30;;
49340;SDS011;35209;51.050;13.678;2022-08-05T13:12:41;2.85;;;1.35;;
49340;SDS011;35209;51.050;13.678;2022-08-05T13:17:58;1.60;;;1.40;;
49340;SDS011;35209;51.050;13.678;2022-08-05T13:22:59;3.50;;;1.35;;
49340;SDS011;35209;51.050;13.678;2022-08-05T13:28:07;4.75;;;1.48;;
49340;SDS011;35209;51.050;13.678;2022-08-05T13:33:11;1.92;;;1.30;;
49340;SDS011;35209;51.050;13.678;2022-08-05T13:38:32;2.85;;;1.40;;
49340;SDS011;35209;51.050;13.678;2022-08-05T13:43:38;2.58;;;1.27;;
49340;SDS011;35209;51.050;13.678;2022-08-05T13:48:54;2.80;;;1.27;;
49340;SDS011;35209;51.050;13.678;2022-08-05T13:53:59;3.85;;;1.20;;
49340;SDS011;35209;51.050;13.678;2022-08-05T13:59:03;2.75;;;1.27;;
49340;SDS011;35209;51.050;13.678;2022-08-05T14:04:20;2.35;;;1.10;;
49340;SDS011;35209;51.050;13.678;2022-08-05T14:09:40;3.80;;;1.38;;
49340;SDS011;35209;51.050;13.678;2022-08-05T14:14:46;2.08;;;1.05;;
49340;SDS011;35209;51.050;13.678;2022-08-05T14:19:52;5.88;;;1.20;;
49340;SDS011;35209;51.050;13.678;2022-08-05T14:25:00;3.33;;;1.30;;
49340;SDS011;35209;51.050;13.678;2022-08-05T14:30:06;4.65;;;1.58;;
49340;SDS011;35209;51.050;13.678;2022-08-05T14:35:21;1.88;;;1.45;;
49340;SDS011;35209;51.050;13.678;2022-08-05T14:40:23;2.63;;;1.10;;
49340;SDS011;35209;51.050;13.678;2022-08-05T14:45:24;4.30;;;1.30;;
49340;SDS011;35209;51.050;13.678;2022-08-05T14:50:26;1.92;;;1.20;;
49340;SDS011;35209;51.050;13.678;2022-08-05T14:55:30;7.17;;;1.20;;
49340;SDS011;35209;51.050;13.678;2022-08-05T15:00:40;2.65;;;1.35;;
49340;SDS011;35209;51.050;13.678;2022-08-05T15:06:01;2.47;;;1.20;;
49340;SDS011;35209;51.050;13.678;2022-08-05T15:11:15;2.92;;;1.10;;
49340;SDS011;35209;51.050;13.678;2022-08-05T15:16:16;1.40;;;0.82;;
49340;SDS011;35209;51.050;13.678;2022-08-05T15:21:19;2.83;;;0.93;;
49340;SDS011;35209;51.050;13.678;2022-08-05T15:26:21;1.48;;;1.10;;
49340;SDS011;35209;51.050;13.678;2022-08-05T15:31:32;4.15;;;1.00;;
49340;SDS011;35209;51.050;13.678;2022-08-05T15:36:35;2.42;;;1.20;;
49340;SDS011;35209;51.050;13.678;2022-08-05T15:41:38;2.42;;;1.48;;
49340;SDS011;35209;51.050;13.678;2022-08-05T15:47:02;4.45;;;1.20;;
49340;SDS011;35209;51.050;13.678;2022-08-05T15:52:04;2.60;;;0.98;;
49340;SDS011;35209;51.050;13.678;2022-08-05T15:57:17;2.15;;;1.20;;
49340;SDS011;35209;51.050;13.678;2022-08-05T16:02:20;2.60;;;1.00;;
49340;SDS011;35209;51.050;13.678;2022-08-05T16:07:29;2.67;;;1.20;;
49340;SDS011;35209;51.050;13.678;2022-08-05T16:12:30;1.50;;;0.90;;
49340;SDS011;35209;51.050;13.678;2022-08-05T16:17:32;3.65;;;1.40;;
49340;SDS011;35209;51.050;13.678;2022-08-05T16:22:34;2.10;;;1.10;;
49340;SDS011;35209;51.050;13.678;2022-08-05T16:27:37;6.35;;;1.40;;
49340;SDS011;35209;51.050;13.678;2022-08-05T16:32:59;2.07;;;1.17;;
49340;SDS011;35209;51.050;13.678;2022-08-05T16:38:01;5.60;;;1.90;;
49340;SDS011;35209;51.050;13.678;2022-08-05T16:43:23;4.55;;;1.50;;
49340;SDS011;35209;51.050;13.678;2022-08-05T16:48:25;2.35;;;1.58;;
49340;SDS011;35209;51.050;13.678;2022-08-05T16:53:36;3.65;;;1.70;;
49340;SDS011;35209;51.050;13.678;2022-08-05T16:59:06;3.23;;;1.63;;
49340;SDS011;35209;51.050;13.678;2022-08-05T17:04:14;2.55;;;1.58;;
49340;SDS011;35209;51.050;13.678;2022-08-05T17:09:19;4.97;;;1.38;;
49340;SDS011;35209;51.050;13.678;2022-08-05T17:14:21;3.00;;;1.50;;
49340;SDS011;35209;51.050;13.678;2022-08-05T17:19:38;3.33;;;1.52;;
49340;SDS011;35209;51.050;13.678;2022-08-05T17:24:39;3.65;;;1.65;;
49340;SDS011;35209;51.050;13.678;2022-08-05T17:29:57;3.10;;;1.27;;
49340;SDS011;35209;51.050;13.678;2022-08-05T17:40:05;4.35;;;1.33;;
49340;SDS011;35209;51.050;13.678;2022-08-05T17:45:11;8.43;;;1.80;;
49340;SDS011;35209;51.050;13.678;2022-08-05T17:50:22;10.38;;;2.72;;
49340;SDS011;35209;51.050;13.678;2022-08-05T17:55:31;15.32;;;1.63;;
49340;SDS011;35209;51.050;13.678;2022-08-05T18:00:41;11.23;;;1.42;;
49340;SDS011;35209;51.050;13.678;2022-08-05T18:05:50;6.82;;;1.45;;
49340;SDS011;35209;51.050;13.678;2022-08-05T18:10:54;10.77;;;1.40;;
49340;SDS011;35209;51.050;13.678;2022-08-05T18:15:57;8.23;;;1.45;;
49340;SDS011;35209;51.050;13.678;2022-08-05T18:20:59;6.15;;;2.20;;
49340;SDS011;35209;51.050;13.678;2022-08-05T18:26:02;2.88;;;2.10;;
49340;SDS011;35209;51.050;13.678;2022-08-05T18:31:05;3.40;;;2.30;;
49340;SDS011;35209;51.050;13.678;2022-08-05T18:36:09;5.95;;;2.60;;
49340;SDS011;35209;51.050;13.678;2022-08-05T18:41:15;3.60;;;3.17;;
49340;SDS011;35209;51.050;13.678;2022-08-05T18:46:37;4.88;;;3.85;;
49340;SDS011;35209;51.050;13.678;2022-08-05T18:51:43;4.97;;;4.50;;
49340;SDS011;35209;51.050;13.678;2022-08-05T18:57:11;5.95;;;4.68;;
49340;SDS011;35209;51.050;13.678;2022-08-05T19:02:16;4.68;;;4.35;;
49340;SDS011;35209;51.050;13.678;2022-08-05T19:07:38;9.25;;;4.82;;
49340;SDS011;35209;51.050;13.678;2022-08-05T19:12:47;6.18;;;5.03;;
49340;SDS011;35209;51.050;13.678;2022-08-05T19:17:49;5.20;;;4.63;;
49340;SDS011;35209;51.050;13.678;2022-08-05T19:23:10;6.05;;;5.55;;
49340;SDS011;35209;51.050;13.678;2022-08-05T19:28:32;6.20;;;5.63;;
49340;SDS011;35209;51.050;13.678;2022-08-05T19:33:35;5.82;;;5.07;;
49340;SDS011;35209;51.050;13.678;2022-08-05T19:38:41;4.90;;;4.50;;
49340;SDS011;35209;51.050;13.678;2022-08-05T19:43:44;5.30;;;4.72;;
49340;SDS011;35209;51.050;13.678;2022-08-05T19:49:06;3.70;;;3.40;;
49340;SDS011;35209;51.050;13.678;2022-08-05T19:54:13;3.67;;;3.17;;
49340;SDS011;35209;51.050;13.678;2022-08-05T19:59:31;4.22;;;2.70;;
49340;SDS011;35209;51.050;13.678;2022-08-05T20:04:53;2.25;;;2.13;;
49340;SDS011;35209;51.050;13.678;2022-08-05T20:09:59;4.47;;;2.45;;
49340;SDS011;35209;51.050;13.678;2022-08-05T20:15:01;2.53;;;1.90;;
49340;SDS011;35209;51.050;13.678;2022-08-05T20:20:03;1.73;;;1.55;;
49340;SDS011;35209;51.050;13.678;2022-08-05T20:25:11;1.90;;;1.25;;
49340;SDS011;35209;51.050;13.678;2022-08-05T20:30:12;1.25;;;1.10;;
49340;SDS011;35209;51.050;13.678;2022-08-05T20:35:18;1.17;;;0.90;;
49340;SDS011;35209;51.050;13.678;2022-08-05T20:40:20;1.17;;;1.08;;
49340;SDS011;35209;51.050;13.678;2022-08-05T20:45:23;0.90;;;0.73;;
49340;SDS011;35209;51.050;13.678;2022-08-05T20:50:45;1.52;;;1.00;;
49340;SDS011;35209;51.050;13.678;2022-08-05T20:55:47;2.05;;;0.60;;
49340;SDS011;35209;51.050;13.678;2022-08-05T21:01:09;1.33;;;0.68;;
49340;SDS011;35209;51.050;13.678;2022-08-05T21:06:16;0.70;;;0.35;;
49340;SDS011;35209;51.050;13.678;2022-08-05T21:11:29;0.88;;;0.43;;
49340;SDS011;35209;51.050;13.678;2022-08-05T21:16:51;0.57;;;0.40;;
49340;SDS011;35209;51.050;13.678;2022-08-05T21:21:53;0.95;;;0.60;;
49340;SDS011;35209;51.050;13.678;2022-08-05T21:26:55;0.85;;;0.60;;
49340;SDS011;35209;51.050;13.678;2022-08-05T21:32:00;1.30;;;0.55;;
49340;SDS011;35209;51.050;13.678;2022-08-05T21:37:02;1.95;;;0.50;;
49340;SDS011;35209;51.050;13.678;2022-08-05T21:42:05;0.43;;;0.40;;
49340;SDS011;35209;51.050;13.678;2022-08-05T21:47:27;0.80;;;0.60;;
49340;SDS011;35209;51.050;13.678;2022-08-05T21:52:48;1.42;;;0.50;;
49340;SDS011;35209;51.050;13.678;2022-08-05T21:57:50;0.95;;;0.57;;
49340;SDS011;35209;51.050;13.678;2022-08-05T22:02:53;2.13;;;0.75;;
49340;SDS011;35209;51.050;13.678;2022-08-05T22:07:56;1.27;;;0.50;;
49340;SDS011;35209;51.050;13.678;2022-08-05T22:13:02;1.95;;;0.63;;
49340;SDS011;35209;51.050;13.678;2022-08-05T22:18:24;3.20;;;0.95;;
49340;SDS011;35209;51.050;13.678;2022-08-05T22:23:26;1.48;;;0.45;;
49340;SDS011;35209;51.050;13.678;2022-08-05T22:29:03;0.60;;;0.50;;
49340;SDS011;35209;51.050;13.678;2022-08-05T22:34:06;0.63;;;0.50;;
49340;SDS011;35209;51.050;13.678;2022-08-05T22:39:08;1.95;;;0.70;;
49340;SDS011;35209;51.050;13.678;2022-08-05T22:44:13;1.48;;;0.63;;
49340;SDS011;35209;51.050;13.678;2022-08-05T22:49:19;1.42;;;0.50;;
49340;SDS011;35209;51.050;13.678;2022-08-05T22:54:40;5.15;;;0.93;;
49340;SDS011;35209;51.050;13.678;2022-08-05T22:59:49;4.75;;;1.05;;
49340;SDS011;35209;51.050;13.678;2022-08-05T23:04:54;4.78;;;0.80;;
49340;SDS011;35209;51.050;13.678;2022-08-05T23:09:56;2.65;;;0.93;;
49340;SDS011;35209;51.050;13.678;2022-08-05T23:15:03;2.35;;;0.65;;
49340;SDS011;35209;51.050;13.678;2022-08-05T23:20:10;2.17;;;0.85;;
49340;SDS011;35209;51.050;13.678;2022-08-05T23:25:18;1.35;;;0.95;;
49340;SDS011;35209;51.050;13.678;2022-08-05T23:30:40;1.85;;;0.80;;
49340;SDS011;35209;51.050;13.678;2022-08-05T23:35:44;1.27;;;0.80;;
49340;SDS011;35209;51.050;13.678;2022-08-05T23:40:45;1.50;;;0.90;;
49340;SDS011;35209;51.050;13.678;2022-08-05T23:45:50;1.35;;;1.08;;
49340;SDS011;35209;51.050;13.678;2022-08-05T23:50:52;4.60;;;1.20;;
49340;SDS011;35209;51.050;13.678;2022-08-05T23:55:53;1.85;;;0.90;;
